Fallbrook, California
Current Conditions -  °F | °C
As of 8:35 PM on Friday 24 Oct 2014 (Local Time) from KL18 Reporting Station
Clear Clear  
Wind Chill: 73°   Ceiling: Unl
Heat Index: 73°   Visibility: 10mi
Dew Point: 32°   Wind: 0mph
Humidity: 22%   Direction: NA
Pressure: 29.98"   Gusts: NA
Location:  33.38°N, 117.25°W
Report Text: KL18 250335Z AUTO 00000KT 10SM CLR 23/00 A2998 RMK AO2
Loading
Personal Weather Stations






























Interactive Weather Map
Tropical Storm Tracking
New forecast layout! Learn more

10-Day Weather Forecast

Advertisements
Track Severe Weather on mobile